sensor_id;sensor_type;location;lat;lon;timestamp;P1;durP1;ratioP1;P2;durP2;ratioP2
14760;SDS011;7472;45.396;5.272;2023-04-29T00:01:32;2.65;;;1.60;;
14760;SDS011;7472;45.396;5.272;2023-04-29T00:04:00;1.48;;;1.38;;
14760;SDS011;7472;45.396;5.272;2023-04-29T00:06:29;2.42;;;1.70;;
14760;SDS011;7472;45.396;5.272;2023-04-29T00:08:56;2.58;;;1.90;;
14760;SDS011;7472;45.396;5.272;2023-04-29T00:11:23;1.48;;;1.38;;
14760;SDS011;7472;45.396;5.272;2023-04-29T00:13:51;2.13;;;1.92;;
14760;SDS011;7472;45.396;5.272;2023-04-29T00:16:18;2.85;;;1.73;;
14760;SDS011;7472;45.396;5.272;2023-04-29T00:18:45;3.35;;;1.45;;
14760;SDS011;7472;45.396;5.272;2023-04-29T00:21:13;2.78;;;1.50;;
14760;SDS011;7472;45.396;5.272;2023-04-29T00:23:42;3.55;;;1.58;;
14760;SDS011;7472;45.396;5.272;2023-04-29T00:26:10;2.95;;;1.60;;
14760;SDS011;7472;45.396;5.272;2023-04-29T00:28:37;2.05;;;1.55;;
14760;SDS011;7472;45.396;5.272;2023-04-29T00:31:04;4.30;;;1.58;;
14760;SDS011;7472;45.396;5.272;2023-04-29T00:33:32;2.30;;;1.40;;
14760;SDS011;7472;45.396;5.272;2023-04-29T00:35:59;1.92;;;1.30;;
14760;SDS011;7472;45.396;5.272;2023-04-29T00:38:27;2.03;;;1.40;;
14760;SDS011;7472;45.396;5.272;2023-04-29T00:40:56;2.35;;;1.50;;
14760;SDS011;7472;45.396;5.272;2023-04-29T00:43:23;4.15;;;1.48;;
14760;SDS011;7472;45.396;5.272;2023-04-29T00:45:51;2.50;;;1.20;;
14760;SDS011;7472;45.396;5.272;2023-04-29T00:48:18;2.60;;;1.73;;
14760;SDS011;7472;45.396;5.272;2023-04-29T00:50:46;2.47;;;1.40;;
14760;SDS011;7472;45.396;5.272;2023-04-29T00:53:14;2.47;;;1.00;;
14760;SDS011;7472;45.396;5.272;2023-04-29T00:55:42;3.88;;;1.25;;
14760;SDS011;7472;45.396;5.272;2023-04-29T00:58:11;1.45;;;1.35;;
14760;SDS011;7472;45.396;5.272;2023-04-29T01:00:38;2.95;;;1.73;;
14760;SDS011;7472;45.396;5.272;2023-04-29T01:03:08;1.77;;;1.20;;
14760;SDS011;7472;45.396;5.272;2023-04-29T01:05:35;3.25;;;1.48;;
14760;SDS011;7472;45.396;5.272;2023-04-29T01:08:08;2.28;;;1.50;;
14760;SDS011;7472;45.396;5.272;2023-04-29T01:10:40;2.38;;;1.50;;
14760;SDS011;7472;45.396;5.272;2023-04-29T01:13:08;2.38;;;1.40;;
14760;SDS011;7472;45.396;5.272;2023-04-29T01:15:41;2.35;;;1.58;;
14760;SDS011;7472;45.396;5.272;2023-04-29T01:18:14;3.30;;;1.90;;
14760;SDS011;7472;45.396;5.272;2023-04-29T01:20:45;2.42;;;1.63;;
14760;SDS011;7472;45.396;5.272;2023-04-29T01:23:13;2.53;;;1.90;;
14760;SDS011;7472;45.396;5.272;2023-04-29T01:25:42;2.70;;;1.52;;
14760;SDS011;7472;45.396;5.272;2023-04-29T01:28:13;1.48;;;1.38;;
14760;SDS011;7472;45.396;5.272;2023-04-29T01:30:43;4.20;;;2.20;;
14760;SDS011;7472;45.396;5.272;2023-04-29T01:33:13;4.07;;;1.85;;
14760;SDS011;7472;45.396;5.272;2023-04-29T01:35:44;4.07;;;2.00;;
14760;SDS011;7472;45.396;5.272;2023-04-29T01:38:20;4.55;;;2.28;;
14760;SDS011;7472;45.396;5.272;2023-04-29T01:40:52;2.30;;;2.10;;
14760;SDS011;7472;45.396;5.272;2023-04-29T01:43:25;4.55;;;2.30;;
14760;SDS011;7472;45.396;5.272;2023-04-29T01:45:54;2.28;;;2.03;;
14760;SDS011;7472;45.396;5.272;2023-04-29T01:48:23;2.75;;;2.10;;
14760;SDS011;7472;45.396;5.272;2023-04-29T01:50:51;3.17;;;2.03;;
14760;SDS011;7472;45.396;5.272;2023-04-29T01:53:18;8.10;;;2.90;;
14760;SDS011;7472;45.396;5.272;2023-04-29T01:55:46;3.35;;;2.28;;
14760;SDS011;7472;45.396;5.272;2023-04-29T01:58:15;3.60;;;2.08;;
14760;SDS011;7472;45.396;5.272;2023-04-29T02:00:42;2.70;;;2.33;;
14760;SDS011;7472;45.396;5.272;2023-04-29T02:03:10;2.33;;;1.95;;
14760;SDS011;7472;45.396;5.272;2023-04-29T02:05:38;3.13;;;1.80;;
14760;SDS011;7472;45.396;5.272;2023-04-29T02:08:05;5.93;;;2.67;;
14760;SDS011;7472;45.396;5.272;2023-04-29T02:10:32;3.25;;;2.50;;
14760;SDS011;7472;45.396;5.272;2023-04-29T02:13:00;8.30;;;3.33;;
14760;SDS011;7472;45.396;5.272;2023-04-29T02:15:29;5.95;;;2.55;;
14760;SDS011;7472;45.396;5.272;2023-04-29T02:17:56;3.97;;;1.98;;
14760;SDS011;7472;45.396;5.272;2023-04-29T02:20:23;4.07;;;2.42;;
14760;SDS011;7472;45.396;5.272;2023-04-29T02:22:51;3.28;;;1.95;;
14760;SDS011;7472;45.396;5.272;2023-04-29T02:25:18;3.08;;;2.15;;
14760;SDS011;7472;45.396;5.272;2023-04-29T02:27:45;2.17;;;1.85;;
14760;SDS011;7472;45.396;5.272;2023-04-29T02:30:13;1.55;;;1.27;;
14760;SDS011;7472;45.396;5.272;2023-04-29T02:32:42;2.60;;;1.73;;
14760;SDS011;7472;45.396;5.272;2023-04-29T02:35:10;1.42;;;1.33;;
14760;SDS011;7472;45.396;5.272;2023-04-29T02:37:37;2.75;;;1.45;;
14760;SDS011;7472;45.396;5.272;2023-04-29T02:40:05;3.80;;;1.83;;
14760;SDS011;7472;45.396;5.272;2023-04-29T02:42:32;2.67;;;1.70;;
14760;SDS011;7472;45.396;5.272;2023-04-29T02:45:00;3.92;;;1.60;;
14760;SDS011;7472;45.396;5.272;2023-04-29T02:47:28;3.05;;;1.95;;
14760;SDS011;7472;45.396;5.272;2023-04-29T02:49:56;2.60;;;1.88;;
14760;SDS011;7472;45.396;5.272;2023-04-29T02:52:24;4.50;;;2.17;;
14760;SDS011;7472;45.396;5.272;2023-04-29T02:54:51;5.88;;;1.73;;
14760;SDS011;7472;45.396;5.272;2023-04-29T02:57:18;3.08;;;1.67;;
14760;SDS011;7472;45.396;5.272;2023-04-29T02:59:46;5.03;;;1.98;;
14760;SDS011;7472;45.396;5.272;2023-04-29T03:02:13;5.00;;;1.95;;
14760;SDS011;7472;45.396;5.272;2023-04-29T03:04:41;9.20;;;2.60;;
14760;SDS011;7472;45.396;5.272;2023-04-29T03:07:10;3.00;;;2.10;;
14760;SDS011;7472;45.396;5.272;2023-04-29T03:09:37;4.07;;;1.73;;
14760;SDS011;7472;45.396;5.272;2023-04-29T03:12:05;4.90;;;2.10;;
14760;SDS011;7472;45.396;5.272;2023-04-29T03:14:32;3.10;;;2.00;;
14760;SDS011;7472;45.396;5.272;2023-04-29T03:17:00;3.20;;;2.03;;
14760;SDS011;7472;45.396;5.272;2023-04-29T03:19:28;5.47;;;2.33;;
14760;SDS011;7472;45.396;5.272;2023-04-29T03:21:56;4.82;;;2.70;;
14760;SDS011;7472;45.396;5.272;2023-04-29T03:24:25;4.90;;;2.67;;
14760;SDS011;7472;45.396;5.272;2023-04-29T03:26:52;6.90;;;3.50;;
14760;SDS011;7472;45.396;5.272;2023-04-29T03:29:19;5.38;;;2.80;;
14760;SDS011;7472;45.396;5.272;2023-04-29T03:31:47;4.45;;;2.70;;
14760;SDS011;7472;45.396;5.272;2023-04-29T03:34:14;3.47;;;1.80;;
14760;SDS011;7472;45.396;5.272;2023-04-29T03:36:42;3.22;;;2.10;;
14760;SDS011;7472;45.396;5.272;2023-04-29T03:39:09;2.70;;;1.70;;
14760;SDS011;7472;45.396;5.272;2023-04-29T03:41:38;3.15;;;2.05;;
14760;SDS011;7472;45.396;5.272;2023-04-29T03:44:06;4.82;;;1.90;;
14760;SDS011;7472;45.396;5.272;2023-04-29T03:46:33;5.15;;;2.15;;
14760;SDS011;7472;45.396;5.272;2023-04-29T03:49:00;3.45;;;2.15;;
14760;SDS011;7472;45.396;5.272;2023-04-29T03:51:28;3.92;;;1.95;;
14760;SDS011;7472;45.396;5.272;2023-04-29T03:53:55;3.28;;;2.33;;
14760;SDS011;7472;45.396;5.272;2023-04-29T03:56:23;4.55;;;2.33;;
14760;SDS011;7472;45.396;5.272;2023-04-29T03:58:52;2.92;;;2.30;;
14760;SDS011;7472;45.396;5.272;2023-04-29T04:01:20;2.33;;;2.10;;
14760;SDS011;7472;45.396;5.272;2023-04-29T04:03:47;2.22;;;2.03;;
14760;SDS011;7472;45.396;5.272;2023-04-29T04:06:14;3.05;;;1.70;;
14760;SDS011;7472;45.396;5.272;2023-04-29T04:08:42;4.05;;;1.88;;
14760;SDS011;7472;45.396;5.272;2023-04-29T04:11:09;3.42;;;2.10;;
14760;SDS011;7472;45.396;5.272;2023-04-29T04:13:39;7.70;;;2.17;;
14760;SDS011;7472;45.396;5.272;2023-04-29T04:16:08;1.90;;;1.80;;
14760;SDS011;7472;45.396;5.272;2023-04-29T04:18:36;2.60;;;2.00;;
14760;SDS011;7472;45.396;5.272;2023-04-29T04:21:06;5.00;;;2.10;;
14760;SDS011;7472;45.396;5.272;2023-04-29T04:23:34;3.80;;;2.28;;
14760;SDS011;7472;45.396;5.272;2023-04-29T04:26:04;1.70;;;1.60;;
14760;SDS011;7472;45.396;5.272;2023-04-29T04:28:31;4.13;;;2.13;;
14760;SDS011;7472;45.396;5.272;2023-04-29T04:30:59;5.50;;;1.75;;
14760;SDS011;7472;45.396;5.272;2023-04-29T04:33:27;3.33;;;1.92;;
14760;SDS011;7472;45.396;5.272;2023-04-29T04:35:55;6.53;;;2.22;;
14760;SDS011;7472;45.396;5.272;2023-04-29T04:38:22;2.80;;;2.47;;
14760;SDS011;7472;45.396;5.272;2023-04-29T04:40:50;3.95;;;2.40;;
14760;SDS011;7472;45.396;5.272;2023-04-29T04:43:17;3.83;;;2.50;;
14760;SDS011;7472;45.396;5.272;2023-04-29T04:45:45;3.58;;;2.10;;
14760;SDS011;7472;45.396;5.272;2023-04-29T04:48:12;3.35;;;2.38;;
14760;SDS011;7472;45.396;5.272;2023-04-29T04:50:41;3.88;;;2.17;;
14760;SDS011;7472;45.396;5.272;2023-04-29T04:53:08;2.97;;;2.15;;
14760;SDS011;7472;45.396;5.272;2023-04-29T04:55:36;2.22;;;2.03;;
14760;SDS011;7472;45.396;5.272;2023-04-29T04:58:03;3.90;;;2.20;;
14760;SDS011;7472;45.396;5.272;2023-04-29T05:00:30;3.92;;;2.22;;
14760;SDS011;7472;45.396;5.272;2023-04-29T05:02:58;3.47;;;2.65;;
14760;SDS011;7472;45.396;5.272;2023-04-29T05:05:25;2.92;;;2.17;;
14760;SDS011;7472;45.396;5.272;2023-04-29T05:07:54;2.60;;;2.40;;
14760;SDS011;7472;45.396;5.272;2023-04-29T05:10:21;4.18;;;2.80;;
14760;SDS011;7472;45.396;5.272;2023-04-29T05:12:51;4.22;;;2.25;;
14760;SDS011;7472;45.396;5.272;2023-04-29T05:15:18;3.25;;;2.55;;
14760;SDS011;7472;45.396;5.272;2023-04-29T05:17:45;3.55;;;2.03;;
14760;SDS011;7472;45.396;5.272;2023-04-29T05:20:13;3.42;;;2.25;;
14760;SDS011;7472;45.396;5.272;2023-04-29T05:22:40;2.92;;;2.28;;
14760;SDS011;7472;45.396;5.272;2023-04-29T05:25:09;3.17;;;2.45;;
14760;SDS011;7472;45.396;5.272;2023-04-29T05:27:36;2.60;;;2.40;;
14760;SDS011;7472;45.396;5.272;2023-04-29T05:30:04;3.22;;;2.53;;
14760;SDS011;7472;45.396;5.272;2023-04-29T05:32:32;4.05;;;2.15;;
14760;SDS011;7472;45.396;5.272;2023-04-29T05:34:59;2.38;;;2.17;;
14760;SDS011;7472;45.396;5.272;2023-04-29T05:37:27;3.65;;;2.13;;
14760;SDS011;7472;45.396;5.272;2023-04-29T05:39:56;2.85;;;2.60;;
14760;SDS011;7472;45.396;5.272;2023-04-29T05:42:24;4.43;;;2.75;;
14760;SDS011;7472;45.396;5.272;2023-04-29T05:44:52;2.58;;;2.35;;
14760;SDS011;7472;45.396;5.272;2023-04-29T05:47:19;3.38;;;2.55;;
14760;SDS011;7472;45.396;5.272;2023-04-29T05:49:47;3.45;;;2.40;;
14760;SDS011;7472;45.396;5.272;2023-04-29T05:52:14;3.17;;;2.40;;
14760;SDS011;7472;45.396;5.272;2023-04-29T05:54:41;4.93;;;2.63;;
14760;SDS011;7472;45.396;5.272;2023-04-29T05:57:09;5.20;;;2.60;;
14760;SDS011;7472;45.396;5.272;2023-04-29T05:59:38;3.95;;;2.45;;
14760;SDS011;7472;45.396;5.272;2023-04-29T06:02:05;4.45;;;2.13;;
14760;SDS011;7472;45.396;5.272;2023-04-29T06:04:32;2.08;;;1.80;;
14760;SDS011;7472;45.396;5.272;2023-04-29T06:07:00;2.38;;;1.95;;
14760;SDS011;7472;45.396;5.272;2023-04-29T06:09:29;2.45;;;2.25;;
14760;SDS011;7472;45.396;5.272;2023-04-29T06:11:57;4.22;;;2.45;;
14760;SDS011;7472;45.396;5.272;2023-04-29T06:14:24;5.95;;;2.35;;
14760;SDS011;7472;45.396;5.272;2023-04-29T06:16:53;5.18;;;3.17;;
14760;SDS011;7472;45.396;5.272;2023-04-29T06:19:21;6.07;;;2.67;;
14760;SDS011;7472;45.396;5.272;2023-04-29T06:21:49;4.13;;;2.80;;
14760;SDS011;7472;45.396;5.272;2023-04-29T06:24:16;4.65;;;3.00;;
14760;SDS011;7472;45.396;5.272;2023-04-29T06:26:44;4.22;;;2.55;;
14760;SDS011;7472;45.396;5.272;2023-04-29T06:29:12;2.85;;;2.65;;
14760;SDS011;7472;45.396;5.272;2023-04-29T06:31:40;7.47;;;3.30;;
14760;SDS011;7472;45.396;5.272;2023-04-29T06:34:09;5.10;;;3.25;;
14760;SDS011;7472;45.396;5.272;2023-04-29T06:36:37;2.83;;;2.25;;
14760;SDS011;7472;45.396;5.272;2023-04-29T06:39:05;2.72;;;1.95;;
14760;SDS011;7472;45.396;5.272;2023-04-29T06:41:33;3.88;;;2.33;;
14760;SDS011;7472;45.396;5.272;2023-04-29T06:44:01;2.95;;;2.30;;
14760;SDS011;7472;45.396;5.272;2023-04-29T06:46:28;3.65;;;2.20;;
14760;SDS011;7472;45.396;5.272;2023-04-29T06:48:56;2.90;;;2.70;;
14760;SDS011;7472;45.396;5.272;2023-04-29T06:51:24;9.02;;;3.70;;
14760;SDS011;7472;45.396;5.272;2023-04-29T06:53:53;5.60;;;3.95;;
14760;SDS011;7472;45.396;5.272;2023-04-29T06:56:20;6.78;;;3.85;;
14760;SDS011;7472;45.396;5.272;2023-04-29T06:58:48;5.28;;;3.83;;
14760;SDS011;7472;45.396;5.272;2023-04-29T07:01:16;5.28;;;4.15;;
14760;SDS011;7472;45.396;5.272;2023-04-29T07:03:43;5.22;;;4.53;;
14760;SDS011;7472;45.396;5.272;2023-04-29T07:06:10;5.55;;;3.38;;
14760;SDS011;7472;45.396;5.272;2023-04-29T07:08:39;4.80;;;3.33;;
14760;SDS011;7472;45.396;5.272;2023-04-29T07:11:06;3.75;;;2.67;;
14760;SDS011;7472;45.396;5.272;2023-04-29T07:13:34;4.40;;;3.22;;
14760;SDS011;7472;45.396;5.272;2023-04-29T07:16:01;3.75;;;3.17;;
14760;SDS011;7472;45.396;5.272;2023-04-29T07:18:29;5.45;;;3.65;;
14760;SDS011;7472;45.396;5.272;2023-04-29T07:20:59;5.70;;;3.95;;
14760;SDS011;7472;45.396;5.272;2023-04-29T07:23:27;4.05;;;3.67;;
14760;SDS011;7472;45.396;5.272;2023-04-29T07:25:56;3.85;;;3.45;;
14760;SDS011;7472;45.396;5.272;2023-04-29T07:28:23;3.92;;;3.30;;
14760;SDS011;7472;45.396;5.272;2023-04-29T07:30:51;6.07;;;3.65;;
14760;SDS011;7472;45.396;5.272;2023-04-29T07:33:18;5.38;;;3.85;;
14760;SDS011;7472;45.396;5.272;2023-04-29T07:35:46;6.70;;;3.92;;
14760;SDS011;7472;45.396;5.272;2023-04-29T07:38:13;6.15;;;4.20;;
14760;SDS011;7472;45.396;5.272;2023-04-29T07:40:40;5.85;;;3.75;;
14760;SDS011;7472;45.396;5.272;2023-04-29T07:43:10;6.15;;;3.47;;
14760;SDS011;7472;45.396;5.272;2023-04-29T07:45:38;3.28;;;2.97;;
14760;SDS011;7472;45.396;5.272;2023-04-29T07:48:05;4.07;;;3.67;;
14760;SDS011;7472;45.396;5.272;2023-04-29T07:50:33;3.83;;;3.13;;
14760;SDS011;7472;45.396;5.272;2023-04-29T07:53:01;3.70;;;3.40;;
14760;SDS011;7472;45.396;5.272;2023-04-29T07:55:28;5.10;;;3.70;;
14760;SDS011;7472;45.396;5.272;2023-04-29T07:57:56;7.43;;;5.03;;
14760;SDS011;7472;45.396;5.272;2023-04-29T08:00:25;6.20;;;4.10;;
14760;SDS011;7472;45.396;5.272;2023-04-29T08:02:53;3.85;;;3.55;;
14760;SDS011;7472;45.396;5.272;2023-04-29T08:05:21;4.43;;;3.08;;
14760;SDS011;7472;45.396;5.272;2023-04-29T08:07:49;5.47;;;2.92;;
14760;SDS011;7472;45.396;5.272;2023-04-29T08:10:16;3.20;;;2.85;;
14760;SDS011;7472;45.396;5.272;2023-04-29T08:12:44;5.10;;;2.83;;
14760;SDS011;7472;45.396;5.272;2023-04-29T08:15:11;3.13;;;2.83;;
14760;SDS011;7472;45.396;5.272;2023-04-29T08:17:40;3.13;;;2.83;;
14760;SDS011;7472;45.396;5.272;2023-04-29T08:20:08;3.50;;;3.20;;
14760;SDS011;7472;45.396;5.272;2023-04-29T08:22:36;2.72;;;2.47;;
14760;SDS011;7472;45.396;5.272;2023-04-29T08:25:03;3.25;;;2.78;;
14760;SDS011;7472;45.396;5.272;2023-04-29T08:27:31;2.72;;;2.33;;
14760;SDS011;7472;45.396;5.272;2023-04-29T08:29:58;3.05;;;2.58;;
14760;SDS011;7472;45.396;5.272;2023-04-29T08:32:25;2.00;;;1.48;;
14760;SDS011;7472;45.396;5.272;2023-04-29T08:34:54;2.35;;;1.55;;
14760;SDS011;7472;45.396;5.272;2023-04-29T08:37:21;2.17;;;1.70;;
14760;SDS011;7472;45.396;5.272;2023-04-29T08:39:49;1.85;;;1.73;;
14760;SDS011;7472;45.396;5.272;2023-04-29T08:42:16;2.90;;;1.63;;
14760;SDS011;7472;45.396;5.272;2023-04-29T08:44:46;1.75;;;1.50;;
14760;SDS011;7472;45.396;5.272;2023-04-29T08:47:14;3.17;;;1.63;;
14760;SDS011;7472;45.396;5.272;2023-04-29T08:49:41;3.67;;;1.73;;
14760;SDS011;7472;45.396;5.272;2023-04-29T08:52:10;5.28;;;1.65;;
14760;SDS011;7472;45.396;5.272;2023-04-29T08:54:38;2.10;;;1.90;;
14760;SDS011;7472;45.396;5.272;2023-04-29T08:57:05;3.58;;;2.00;;
14760;SDS011;7472;45.396;5.272;2023-04-29T08:59:33;4.38;;;1.73;;
14760;SDS011;7472;45.396;5.272;2023-04-29T09:02:00;1.83;;;1.60;;
14760;SDS011;7472;45.396;5.272;2023-04-29T09:04:33;2.38;;;1.50;;
14760;SDS011;7472;45.396;5.272;2023-04-29T09:07:03;3.25;;;1.38;;
14760;SDS011;7472;45.396;5.272;2023-04-29T09:09:33;2.35;;;1.40;;
14760;SDS011;7472;45.396;5.272;2023-04-29T09:12:01;6.15;;;1.13;;
14760;SDS011;7472;45.396;5.272;2023-04-29T09:14:28;2.72;;;1.10;;
14760;SDS011;7472;45.396;5.272;2023-04-29T09:16:58;2.90;;;0.90;;
14760;SDS011;7472;45.396;5.272;2023-04-29T09:19:28;4.03;;;1.33;;
14760;SDS011;7472;45.396;5.272;2023-04-29T09:21:56;1.75;;;1.60;;
14760;SDS011;7472;45.396;5.272;2023-04-29T09:24:24;4.55;;;1.50;;
14760;SDS011;7472;45.396;5.272;2023-04-29T09:26:53;3.03;;;1.60;;
14760;SDS011;7472;45.396;5.272;2023-04-29T09:29:21;2.40;;;1.60;;
14760;SDS011;7472;45.396;5.272;2023-04-29T09:31:48;3.00;;;1.23;;
14760;SDS011;7472;45.396;5.272;2023-04-29T09:34:17;3.28;;;1.50;;
14760;SDS011;7472;45.396;5.272;2023-04-29T09:36:56;2.58;;;1.67;;
14760;SDS011;7472;45.396;5.272;2023-04-29T09:39:24;2.40;;;1.90;;
14760;SDS011;7472;45.396;5.272;2023-04-29T09:41:59;2.13;;;1.98;;
14760;SDS011;7472;45.396;5.272;2023-04-29T09:44:28;2.38;;;2.00;;
14760;SDS011;7472;45.396;5.272;2023-04-29T09:46:56;2.55;;;1.92;;
14760;SDS011;7472;45.396;5.272;2023-04-29T09:49:26;5.45;;;1.92;;
14760;SDS011;7472;45.396;5.272;2023-04-29T09:51:55;2.45;;;2.25;;
14760;SDS011;7472;45.396;5.272;2023-04-29T09:54:22;2.60;;;2.40;;
14760;SDS011;7472;45.396;5.272;2023-04-29T09:56:52;2.70;;;2.00;;
14760;SDS011;7472;45.396;5.272;2023-04-29T09:59:21;2.63;;;2.42;;
14760;SDS011;7472;45.396;5.272;2023-04-29T10:01:49;4.22;;;2.08;;
14760;SDS011;7472;45.396;5.272;2023-04-29T10:04:17;3.33;;;1.98;;
14760;SDS011;7472;45.396;5.272;2023-04-29T10:06:47;6.13;;;1.92;;
14760;SDS011;7472;45.396;5.272;2023-04-29T10:09:15;9.55;;;2.83;;
14760;SDS011;7472;45.396;5.272;2023-04-29T10:11:43;2.20;;;2.00;;
14760;SDS011;7472;45.396;5.272;2023-04-29T10:14:11;2.63;;;2.40;;
14760;SDS011;7472;45.396;5.272;2023-04-29T10:16:43;5.95;;;2.47;;
14760;SDS011;7472;45.396;5.272;2023-04-29T10:19:11;2.38;;;2.15;;
14760;SDS011;7472;45.396;5.272;2023-04-29T10:21:41;2.63;;;2.42;;
14760;SDS011;7472;45.396;5.272;2023-04-29T10:24:08;2.50;;;2.30;;
14760;SDS011;7472;45.396;5.272;2023-04-29T10:26:37;2.47;;;2.05;;
14760;SDS011;7472;45.396;5.272;2023-04-29T10:29:05;4.85;;;2.40;;
14760;SDS011;7472;45.396;5.272;2023-04-29T10:31:34;3.63;;;2.10;;
14760;SDS011;7472;45.396;5.272;2023-04-29T10:34:04;2.67;;;2.28;;
14760;SDS011;7472;45.396;5.272;2023-04-29T10:36:31;4.65;;;3.30;;
14760;SDS011;7472;45.396;5.272;2023-04-29T10:39:00;4.13;;;2.30;;
14760;SDS011;7472;45.396;5.272;2023-04-29T10:41:33;2.35;;;2.10;;
14760;SDS011;7472;45.396;5.272;2023-04-29T10:44:01;2.55;;;1.77;;
14760;SDS011;7472;45.396;5.272;2023-04-29T10:46:29;3.00;;;2.17;;
14760;SDS011;7472;45.396;5.272;2023-04-29T10:48:59;4.60;;;2.90;;
14760;SDS011;7472;45.396;5.272;2023-04-29T10:51:29;5.40;;;2.92;;
14760;SDS011;7472;45.396;5.272;2023-04-29T10:54:00;3.58;;;2.25;;
14760;SDS011;7472;45.396;5.272;2023-04-29T10:56:34;2.38;;;1.88;;
14760;SDS011;7472;45.396;5.272;2023-04-29T10:59:02;2.72;;;1.95;;
14760;SDS011;7472;45.396;5.272;2023-04-29T11:01:39;3.80;;;2.30;;
14760;SDS011;7472;45.396;5.272;2023-04-29T11:04:06;2.28;;;1.75;;
14760;SDS011;7472;45.396;5.272;2023-04-29T11:06:40;1.90;;;1.73;;
14760;SDS011;7472;45.396;5.272;2023-04-29T11:09:08;7.00;;;3.03;;
14760;SDS011;7472;45.396;5.272;2023-04-29T11:14:23;3.05;;;2.13;;
14760;SDS011;7472;45.396;5.272;2023-04-29T11:16:51;4.30;;;2.17;;
14760;SDS011;7472;45.396;5.272;2023-04-29T11:19:19;3.60;;;2.58;;
14760;SDS011;7472;45.396;5.272;2023-04-29T11:21:47;3.90;;;2.15;;
14760;SDS011;7472;45.396;5.272;2023-04-29T11:24:15;3.58;;;2.97;;
14760;SDS011;7472;45.396;5.272;2023-04-29T11:26:42;2.50;;;2.08;;
14760;SDS011;7472;45.396;5.272;2023-04-29T11:29:10;3.15;;;2.60;;
14760;SDS011;7472;45.396;5.272;2023-04-29T11:31:37;2.45;;;2.25;;
14760;SDS011;7472;45.396;5.272;2023-04-29T11:34:05;4.00;;;2.55;;
14760;SDS011;7472;45.396;5.272;2023-04-29T11:36:32;6.03;;;3.25;;
14760;SDS011;7472;45.396;5.272;2023-04-29T11:39:02;3.55;;;2.20;;
14760;SDS011;7472;45.396;5.272;2023-04-29T11:41:30;2.17;;;2.00;;
14760;SDS011;7472;45.396;5.272;2023-04-29T11:43:59;3.42;;;2.13;;
14760;SDS011;7472;45.396;5.272;2023-04-29T11:46:29;2.67;;;2.30;;
14760;SDS011;7472;45.396;5.272;2023-04-29T11:48:57;3.67;;;2.05;;
14760;SDS011;7472;45.396;5.272;2023-04-29T11:51:25;3.33;;;2.30;;
14760;SDS011;7472;45.396;5.272;2023-04-29T11:53:53;3.05;;;2.28;;
14760;SDS011;7472;45.396;5.272;2023-04-29T11:56:23;3.70;;;2.65;;
14760;SDS011;7472;45.396;5.272;2023-04-29T11:58:52;2.30;;;2.10;;
14760;SDS011;7472;45.396;5.272;2023-04-29T12:01:21;2.42;;;2.20;;
14760;SDS011;7472;45.396;5.272;2023-04-29T12:03:48;2.47;;;2.10;;
14760;SDS011;7472;45.396;5.272;2023-04-29T12:06:16;8.43;;;4.70;;
14760;SDS011;7472;45.396;5.272;2023-04-29T12:08:45;13.70;;;6.97;;
14760;SDS011;7472;45.396;5.272;2023-04-29T12:11:12;4.25;;;3.28;;
14760;SDS011;7472;45.396;5.272;2023-04-29T12:13:41;14.20;;;5.82;;
14760;SDS011;7472;45.396;5.272;2023-04-29T12:16:09;10.40;;;5.15;;
14760;SDS011;7472;45.396;5.272;2023-04-29T12:18:36;6.50;;;4.25;;
14760;SDS011;7472;45.396;5.272;2023-04-29T12:21:04;5.68;;;2.38;;
14760;SDS011;7472;45.396;5.272;2023-04-29T12:23:31;3.55;;;2.63;;
14760;SDS011;7472;45.396;5.272;2023-04-29T12:25:59;11.90;;;5.20;;
14760;SDS011;7472;45.396;5.272;2023-04-29T12:28:27;7.57;;;4.53;;
14760;SDS011;7472;45.396;5.272;2023-04-29T12:30:57;3.88;;;2.95;;
14760;SDS011;7472;45.396;5.272;2023-04-29T12:33:26;2.80;;;2.58;;
14760;SDS011;7472;45.396;5.272;2023-04-29T12:35:54;5.80;;;3.20;;
14760;SDS011;7472;45.396;5.272;2023-04-29T12:38:23;7.05;;;4.18;;
14760;SDS011;7472;45.396;5.272;2023-04-29T12:40:51;5.13;;;2.85;;
14760;SDS011;7472;45.396;5.272;2023-04-29T12:43:24;4.05;;;2.30;;
14760;SDS011;7472;45.396;5.272;2023-04-29T12:45:53;39.13;;;4.13;;
14760;SDS011;7472;45.396;5.272;2023-04-29T12:48:23;3.70;;;2.17;;
14760;SDS011;7472;45.396;5.272;2023-04-29T12:50:55;2.78;;;2.13;;
14760;SDS011;7472;45.396;5.272;2023-04-29T12:53:24;3.58;;;2.80;;
14760;SDS011;7472;45.396;5.272;2023-04-29T12:55:51;1.95;;;1.70;;
14760;SDS011;7472;45.396;5.272;2023-04-29T12:58:19;7.55;;;2.70;;
14760;SDS011;7472;45.396;5.272;2023-04-29T13:00:46;3.97;;;2.67;;
14760;SDS011;7472;45.396;5.272;2023-04-29T13:03:14;2.33;;;2.13;;
14760;SDS011;7472;45.396;5.272;2023-04-29T13:05:43;2.92;;;2.17;;
14760;SDS011;7472;45.396;5.272;2023-04-29T13:08:12;2.50;;;2.30;;
14760;SDS011;7472;45.396;5.272;2023-04-29T13:10:40;2.28;;;2.10;;
14760;SDS011;7472;45.396;5.272;2023-04-29T13:13:08;2.42;;;1.80;;
14760;SDS011;7472;45.396;5.272;2023-04-29T13:15:35;3.72;;;1.85;;
14760;SDS011;7472;45.396;5.272;2023-04-29T13:18:03;2.05;;;1.85;;
14760;SDS011;7472;45.396;5.272;2023-04-29T13:20:30;2.63;;;1.38;;
14760;SDS011;7472;45.396;5.272;2023-04-29T13:22:59;2.33;;;1.58;;
14760;SDS011;7472;45.396;5.272;2023-04-29T13:25:27;3.03;;;1.90;;
14760;SDS011;7472;45.396;5.272;2023-04-29T13:27:54;1.85;;;1.75;;
14760;SDS011;7472;45.396;5.272;2023-04-29T13:30:21;2.05;;;1.85;;
14760;SDS011;7472;45.396;5.272;2023-04-29T13:32:49;1.88;;;1.73;;
14760;SDS011;7472;45.396;5.272;2023-04-29T13:35:16;2.92;;;1.80;;
14760;SDS011;7472;45.396;5.272;2023-04-29T13:37:44;6.97;;;2.38;;
14760;SDS011;7472;45.396;5.272;2023-04-29T13:40:13;1.88;;;1.70;;
14760;SDS011;7472;45.396;5.272;2023-04-29T13:42:41;2.92;;;2.20;;
14760;SDS011;7472;45.396;5.272;2023-04-29T13:45:08;3.80;;;3.35;;
14760;SDS011;7472;45.396;5.272;2023-04-29T13:47:36;2.00;;;1.75;;
14760;SDS011;7472;45.396;5.272;2023-04-29T13:50:03;2.00;;;1.80;;
14760;SDS011;7472;45.396;5.272;2023-04-29T13:52:31;2.20;;;1.70;;
14760;SDS011;7472;45.396;5.272;2023-04-29T13:54:58;2.58;;;1.77;;
14760;SDS011;7472;45.396;5.272;2023-04-29T13:57:27;3.42;;;1.80;;
14760;SDS011;7472;45.396;5.272;2023-04-29T13:59:54;2.03;;;1.50;;
14760;SDS011;7472;45.396;5.272;2023-04-29T14:02:22;2.28;;;1.63;;
14760;SDS011;7472;45.396;5.272;2023-04-29T14:04:49;2.08;;;1.60;;
14760;SDS011;7472;45.396;5.272;2023-04-29T14:07:17;2.30;;;1.50;;
14760;SDS011;7472;45.396;5.272;2023-04-29T14:09:44;3.38;;;1.52;;
14760;SDS011;7472;45.396;5.272;2023-04-29T14:12:13;2.15;;;1.70;;
14760;SDS011;7472;45.396;5.272;2023-04-29T14:14:42;1.88;;;1.48;;
14760;SDS011;7472;45.396;5.272;2023-04-29T14:17:09;3.03;;;1.58;;
14760;SDS011;7472;45.396;5.272;2023-04-29T14:19:37;3.60;;;1.33;;
14760;SDS011;7472;45.396;5.272;2023-04-29T14:22:04;1.55;;;1.30;;
14760;SDS011;7472;45.396;5.272;2023-04-29T14:24:31;2.50;;;1.50;;
14760;SDS011;7472;45.396;5.272;2023-04-29T14:26:59;3.22;;;0.82;;
14760;SDS011;7472;45.396;5.272;2023-04-29T14:29:27;1.10;;;1.00;;
14760;SDS011;7472;45.396;5.272;2023-04-29T14:31:56;2.35;;;1.00;;
14760;SDS011;7472;45.396;5.272;2023-04-29T14:34:23;1.80;;;1.35;;
14760;SDS011;7472;45.396;5.272;2023-04-29T14:36:51;5.13;;;1.52;;
14760;SDS011;7472;45.396;5.272;2023-04-29T14:39:18;1.25;;;0.80;;
14760;SDS011;7472;45.396;5.272;2023-04-29T14:41:45;1.67;;;0.98;;
14760;SDS011;7472;45.396;5.272;2023-04-29T14:44:13;1.20;;;0.98;;
14760;SDS011;7472;45.396;5.272;2023-04-29T14:46:40;2.97;;;1.00;;
14760;SDS011;7472;45.396;5.272;2023-04-29T14:49:09;1.25;;;1.15;;
14760;SDS011;7472;45.396;5.272;2023-04-29T14:51:37;2.35;;;1.15;;
14760;SDS011;7472;45.396;5.272;2023-04-29T14:54:04;2.75;;;1.73;;
14760;SDS011;7472;45.396;5.272;2023-04-29T14:56:33;1.55;;;1.10;;
14760;SDS011;7472;45.396;5.272;2023-04-29T14:59:02;1.75;;;1.65;;
14760;SDS011;7472;45.396;5.272;2023-04-29T15:01:32;1.65;;;1.00;;
14760;SDS011;7472;45.396;5.272;2023-04-29T15:04:01;1.60;;;1.08;;
14760;SDS011;7472;45.396;5.272;2023-04-29T15:06:30;1.55;;;1.40;;
14760;SDS011;7472;45.396;5.272;2023-04-29T15:08:57;1.60;;;1.30;;